Time;durP1;ratioP1;P1;durP2;ratioP2;P2;SDS_P1;SDS_P2;PMS_P1;PMS_P2;Temp;Humidity;BMP_temperature;BMP_pressure;BME280_temperature;BME280_humidity;BME280_pressure;Samples;Min_cycle;Max_cycle;Signal;HPM_P1;HPM_P2
2022/08/23 00:01:37;;;;;;;3.67;1.73;;;19.10;90.20;;;;;;5070837;28;20044;-66
2022/08/23 00:04:08;;;;;;;5.43;1.83;;;19.10;89.60;;;;;;5076359;28;20032;-66
2022/08/23 00:06:34;;;;;;;5.88;1.85;;;19.10;90.20;;;;;;5081089;28;20070;-66
2022/08/23 00:09:00;;;;;;;;;;;19.10;90.40;;;;;;5076430;28;20034;-65
2022/08/23 00:11:32;;;;;;;7.28;1.80;;;19.10;90.30;;;;;;5080804;28;19994;-66
2022/08/23 00:14:02;;;;;;;3.60;1.50;;;19.10;90.60;;;;;;5073700;28;20039;-65
2022/08/23 00:16:28;;;;;;;4.40;1.77;;;19.10;90.60;;;;;;5081716;28;20044;-66
2022/08/23 00:18:54;;;;;;;8.82;1.88;;;19.10;89.50;;;;;;5061539;28;20064;-66
2022/08/23 00:21:20;;;;;;;;;;;19.10;89.40;;;;;;5067725;28;20060;-66
2022/08/23 00:23:46;;;;;;;5.93;1.80;;;19.10;89.80;;;;;;5060215;28;19962;-65
2022/08/23 00:26:11;;;;;;;6.22;2.10;;;19.20;90.30;;;;;;5051179;28;20044;-65
2022/08/23 00:28:37;;;;;;;3.78;1.95;;;19.10;88.40;;;;;;5059963;28;20073;-66
2022/08/23 00:31:03;;;;;;;6.80;1.98;;;19.10;89.20;;;;;;5066875;28;20043;-66
2022/08/23 00:33:28;;;;;;;4.00;2.05;;;19.10;90.20;;;;;;5063936;28;20105;-66
2022/08/23 00:35:54;;;;;;;;;;;19.10;90.00;;;;;;5067468;28;20040;-66
2022/08/23 00:38:19;;;;;;;5.10;1.73;;;19.10;89.00;;;;;;5063985;28;19951;-66
2022/08/23 00:40:46;;;;;;;;;;;19.10;89.80;;;;;;5065762;28;20123;-65
2022/08/23 00:48:49;;;;;;;7.95;2.45;;;19.10;90.10;;;;;;5065920;28;20439;-66
2022/08/23 00:51:20;;;;;;;5.28;2.05;;;19.00;90.10;;;;;;5067287;28;20032;-66
2022/08/23 00:53:52;;;;;;;2.90;1.65;;;19.00;90.00;;;;;;5064211;28;20067;-65
2022/08/23 00:56:21;;;;;;;2.28;1.65;;;18.90;91.20;;;;;;5051573;28;20041;-66
2022/08/23 00:58:47;;;;;;;4.20;1.77;;;18.90;89.80;;;;;;5060600;28;20583;-65
2022/08/23 01:01:14;;;;;;;3.42;1.90;;;18.90;90.00;;;;;;5057571;28;20044;-66
2022/08/23 01:03:43;;;;;;;4.80;1.90;;;19.00;89.90;;;;;;5061522;28;20500;-65
2022/08/23 01:06:14;;;;;;;4.20;2.17;;;19.00;90.00;;;;;;5056240;28;20606;-65
2022/08/23 01:08:48;;;;;;;3.75;1.80;;;19.00;90.00;;;;;;5063284;28;20392;-66
2022/08/23 01:11:35;;;;;;;7.47;2.00;;;19.00;89.80;;;;;;5055278;28;20033;-65
2022/08/23 01:14:10;;;;;;;;;;;19.00;89.50;;;;;;5052502;28;20448;-66
2022/08/23 01:16:47;;;;;;;6.45;1.52;;;19.00;89.00;;;;;;5057484;28;19917;-66
2022/08/23 01:19:42;;;;;;;3.40;1.85;;;19.00;89.90;;;;;;5058494;28;20068;-66
2022/08/23 01:22:14;;;;;;;8.85;2.95;;;19.10;88.90;;;;;;5053788;28;20164;-66
2022/08/23 01:24:42;;;;;;;3.38;1.85;;;19.10;89.50;;;;;;5052649;28;20500;-66
2022/08/23 01:27:11;;;;;;;6.63;1.80;;;19.00;89.00;;;;;;5054687;28;20153;-65
2022/08/23 01:29:36;;;;;;;8.10;1.70;;;19.10;89.00;;;;;;5059405;28;20510;-66
2022/08/23 01:32:02;;;;;;;;;;;19.00;89.80;;;;;;5067386;28;20036;-66
2022/08/23 01:34:28;;;;;;;4.57;1.95;;;18.90;89.10;;;;;;5061165;28;20500;-66
2022/08/23 01:36:57;;;;;;;7.93;1.98;;;18.90;89.20;;;;;;5060159;28;20075;-65
2022/08/23 01:39:22;;;;;;;8.02;2.00;;;19.00;89.10;;;;;;5062089;28;20051;-65
2022/08/23 01:41:49;;;;;;;;;;;19.00;89.70;;;;;;5059067;28;20149;-65
2022/08/23 01:44:14;;;;;;;4.20;2.15;;;19.00;89.20;;;;;;5061064;28;20401;-66
2022/08/23 01:46:42;;;;;;;;;;;19.00;89.50;;;;;;5066469;28;20036;-66
2022/08/23 01:49:07;;;;;;;5.13;1.88;;;19.00;89.50;;;;;;5061760;28;19928;-66
2022/08/23 01:51:33;;;;;;;;;;;;;;;;;;5060503;28;20492;-66
2022/08/23 01:53:59;;;;;;;5.82;1.65;;;;;;;;;;5057125;28;19921;-66
2022/08/23 01:56:25;;;;;;;;;;;;;;;;;;5066491;28;20123;-67
2022/08/23 01:58:51;;;;;;;6.20;1.90;;;;;;;;;;5060197;28;19920;-66
2022/08/23 02:01:18;;;;;;;5.68;1.80;;;;;;;;;;5059194;28;20032;-66
2022/08/23 02:03:45;;;;;;;6.75;1.95;;;;;;;;;;5060633;28;20488;-66
2022/08/23 02:06:11;;;;;;;2.72;1.75;;;;;;;;;;5059257;28;20054;-65
2022/08/23 02:11:23;;;;;;;5.55;1.77;;;;;;;;;;5056604;28;20047;-66
2022/08/23 02:13:52;;;;;;;5.38;2.22;;;;;;;;;;5059876;28;20767;-66
2022/08/23 02:16:22;;;;;;;3.58;1.77;;;;;;;;;;5059661;28;20410;-66
2022/08/23 02:18:49;;;;;;;7.65;2.03;;;;;;;;;;5058938;28;20052;-65
2022/08/23 02:21:15;;;;;;;4.28;1.83;;;;;;;;;;5059778;28;20036;-65
2022/08/23 02:23:41;;;;;;;7.18;1.75;;;;;;;;;;5059152;28;20112;-66
2022/08/23 02:26:07;;;;;;;;;;;;;;;;;;5059301;28;20079;-66
2022/08/23 02:28:33;;;;;;;5.82;2.00;;;;;;;;;;5060122;28;19928;-66
2022/08/23 02:30:59;;;;;;;;;;;;;;;;;;5059306;28;20052;-66
2022/08/23 02:33:25;;;;;;;4.13;1.50;;;;;;;;;;5060985;28;19916;-66
2022/08/23 02:35:51;;;;;;;;;;;;;;;;;;5064292;28;20724;-65
2022/08/23 02:38:17;;;;;;;4.10;1.77;;;;;;;;;;5062539;28;19920;-66
2022/08/23 02:40:43;;;;;;;;;;;;;;;;;;5063077;28;20036;-66
2022/08/23 02:43:09;;;;;;;5.18;1.95;;;;;;;;;;5062473;28;19923;-65
2022/08/23 02:45:36;;;;;;;5.68;1.67;;;;;;;;;;5062177;28;20492;-65
2022/08/23 02:48:02;;;;;;;7.50;1.90;;;;;;;;;;5063085;28;20040;-65
2022/08/23 02:50:28;;;;;;;;;;;;;;;;;;5062650;28;20081;-66
2022/08/23 02:52:54;;;;;;;4.70;2.15;;;;;;;;;;5062648;28;19920;-65
2022/08/23 02:55:21;;;;;;;4.88;2.03;;;;;;;;;;5049117;28;20140;-65
2022/08/23 02:57:47;;;;;;;5.45;2.03;;;;;;;;;;5061314;28;20051;-66
2022/08/23 03:00:13;;;;;;;7.63;2.10;;;;;;;;;;5061426;28;20404;-66
2022/08/23 03:02:40;;;;;;;3.53;1.48;;;;;;;;;;5054720;28;20032;-65
2022/08/23 03:05:06;;;;;;;2.78;1.25;;;;;;;;;;5059694;28;20076;-66
2022/08/23 03:07:32;;;;;;;3.08;1.90;;;;;;;;;;5062956;28;20070;-66
2022/08/23 03:09:58;;;;;;;;;;;;;;;;;;5052734;28;20028;-65
2022/08/23 03:12:26;;;;;;;3.90;1.88;;;;;;;;;;5065273;28;19916;-65
2022/08/23 03:14:52;;;;;;;9.95;2.30;;;;;;;;;;5059258;28;20073;-66
2022/08/23 03:17:18;;;;;;;3.35;1.60;;;;;;;;;;5065255;28;20048;-65
2022/08/23 03:19:44;;;;;;;3.92;1.90;;;;;;;;;;5059776;28;20691;-66
2022/08/23 03:22:10;;;;;;;;;;;;;;;;;;5066021;28;20039;-66
2022/08/23 03:24:36;;;;;;;5.80;1.85;;;;;;;;;;5050541;28;20011;-66
2022/08/23 03:27:03;;;;;;;4.22;1.77;;;;;;;;;;5057651;28;20071;-65
2022/08/23 03:29:30;;;;;;;3.97;1.55;;;;;;;;;;5059142;28;20075;-65
2022/08/23 03:31:57;;;;;;;11.00;1.98;;;;;;;;;;5064569;28;20153;-65
2022/08/23 03:34:23;;;;;;;4.35;1.95;;;;;;;;;;5056919;28;20054;-66
2022/08/23 03:36:49;;;;;;;4.22;1.77;;;;;;;;;;5063699;28;20086;-66
2022/08/23 03:39:15;;;;;;;3.83;2.03;;;;;;;;;;5059881;28;20037;-66
2022/08/23 03:41:41;;;;;;;;;;;;;;;;;;5065464;28;20061;-66
2022/08/23 03:44:07;;;;;;;5.53;2.08;;;;;;;;;;5058886;28;20210;-66
2022/08/23 03:46:33;;;;;;;4.20;1.90;;;;;;;;;;5057819;28;20125;-66
2022/08/23 03:49:00;;;;;;;3.55;1.90;;;;;;;;;;5059364;28;20065;-66
2022/08/23 03:51:27;;;;;;;3.55;1.90;;;;;;;;;;5065026;28;20072;-66
2022/08/23 03:53:53;;;;;;;4.15;2.05;;;;;;;;;;5058745;28;20385;-65
2022/08/23 03:56:26;;;;;;;3.80;1.90;;;;;;;;;;5054356;28;20036;-66
2022/08/23 03:58:53;;;;;;;8.63;2.00;;;;;;;;;;5062084;28;20503;-66
2022/08/23 04:01:19;;;;;;;5.50;2.38;;;;;;;;;;5067883;28;20028;-66
2022/08/23 04:03:47;;;;;;;5.80;1.70;;;;;;;;;;5062316;28;20576;-66
2022/08/23 04:06:13;;;;;;;7.18;2.03;;;;;;;;;;5066159;28;20500;-66
2022/08/23 04:08:39;;;;;;;;;;;;;;;;;;5056599;28;20087;-66
2022/08/23 04:11:06;;;;;;;3.88;1.90;;;;;;;;;;5061631;28;19916;-65
2022/08/23 04:13:32;;;;;;;4.00;1.80;;;;;;;;;;5061580;28;20053;-64
2022/08/23 04:16:01;;;;;;;;;;;;;;;;;;5068546;28;20070;-65
2022/08/23 04:18:29;;;;;;;6.75;2.38;;;;;;;;;;5063489;28;19920;-65
2022/08/23 04:20:55;;;;;;;6.25;2.10;;;;;;;;;;5067815;28;20040;-64
2022/08/23 04:23:21;;;;;;;4.75;2.17;;;;;;;;;;5063921;28;20044;-64
2022/08/23 04:25:47;;;;;;;;;;;;;;;;;;5059489;28;20067;-65
2022/08/23 04:28:13;;;;;;;6.18;2.10;;;;;;;;;;5062788;28;19975;-64
2022/08/23 04:30:39;;;;;;;;;;;;;;;;;;5062529;28;20040;-63
2022/08/23 04:33:05;;;;;;;5.88;2.10;;;;;;;;;;5066195;28;20073;-64
2022/08/23 04:35:32;;;;;;;4.43;2.00;;;;;;;;;;5064315;28;20041;-63
2022/08/23 04:37:58;;;;;;;4.88;2.17;;;;;;;;;;5063997;28;20471;-63
2022/08/23 04:43:09;;;;;;;5.82;2.10;;;;;;;;;;5058015;28;19921;-63
2022/08/23 04:45:35;;;;;;;;;;;;;;;;;;5065424;28;20086;-62
2022/08/23 04:48:01;;;;;;;4.23;1.87;;;;;;;;;;5062922;28;20004;-67
2022/08/23 04:50:27;;;;;;;;;;;;;;;;;;5049634;28;20452;-63
2022/08/23 04:52:53;;;;;;;4.47;2.03;;;;;;;;;;5060602;28;19935;-62
2022/08/23 04:55:18;;;;;;;;;;;;;;;;;;5055402;28;20036;-63
2022/08/23 04:57:45;;;;;;;4.55;2.10;;;;;;;;;;5061754;28;20054;-61
2022/08/23 05:00:13;;;;;;;5.30;1.90;;;;;;;;;;5050472;28;20045;-63
2022/08/23 05:02:39;;;;;;;5.80;2.05;;;;;;;;;;5062847;28;20404;-62
2022/08/23 05:05:05;;;;;;;;;;;;;;;;;;5059030;28;20048;-63
2022/08/23 05:07:31;;;;;;;3.38;2.00;;;;;;;;;;5057313;28;19920;-63
2022/08/23 05:09:57;;;;;;;;;;;;;;;;;;5056669;28;20036;-63
2022/08/23 05:12:23;;;;;;;5.18;2.38;;;;;;;;;;5062292;28;19927;-62
2022/08/23 05:14:48;;;;;;;;;;;;;;;;;;5051931;28;20044;-64
2022/08/23 05:17:15;;;;;;;5.28;1.98;;;;;;;;;;5056579;28;19920;-62
2022/08/23 05:19:41;;;;;;;6.05;1.90;;;;;;;;;;5056898;28;20516;-64
2022/08/23 05:22:06;;;;;;;;;;;;;;;;;;5063869;28;20036;-63
2022/08/23 05:24:32;;;;;;;6.57;2.13;;;;;;;;;;5053464;28;19917;-62
2022/08/23 05:26:59;;;;;;;6.47;2.80;;;;;;;;;;5054871;28;20407;-63
2022/08/23 05:29:24;;;;;;;;;;;;;;;;;;5057945;28;20041;-63
2022/08/23 05:31:50;;;;;;;5.00;2.47;;;;;;;;;;5055463;28;19920;-64
2022/08/23 05:34:17;;;;;;;5.10;1.83;;;;;;;;;;5053561;28;20040;-63
2022/08/23 05:36:43;;;;;;;7.65;2.60;;;;;;;;;;5056178;28;20047;-63
2022/08/23 05:39:09;;;;;;;;;;;;;;;;;;5063233;28;20028;-63
2022/08/23 05:41:35;;;;;;;4.47;2.05;;;;;;;;;;5067087;28;19924;-63
2022/08/23 05:44:02;;;;;;;6.50;2.03;;;;;;;;;;5061466;28;20409;-64
2022/08/23 05:46:28;;;;;;;5.15;2.30;;;;;;;;;;5059054;28;20045;-62
2022/08/23 05:48:54;;;;;;;;;;;;;;;;;;5064884;28;20549;-62
2022/08/23 05:51:21;;;;;;;4.18;2.13;;;;;;;;;;5066703;28;19920;-62
2022/08/23 05:53:48;;;;;;;5.13;2.00;;;;;;;;;;5061610;28;20037;-63
2022/08/23 05:56:19;;;;;;;6.75;3.10;;;;;;;;;;5050737;28;20045;-63
2022/08/23 05:58:45;;;;;;;4.95;2.10;;;;;;;;;;5062026;28;20036;-63
2022/08/23 06:01:12;;;;;;;5.80;2.00;;;;;;;;;;5063346;28;20038;-60
2022/08/23 06:03:38;;;;;;;3.83;2.05;;;;;;;;;;5063031;28;20037;-63
2022/08/23 06:06:05;;;;;;;5.88;1.75;;;;;;;;;;5051911;28;20129;-64
2022/08/23 06:08:31;;;;;;;6.40;2.00;;;;;;;;;;5062191;28;20049;-64
2022/08/23 06:10:58;;;;;;;;;;;;;;;;;;5053212;28;20107;-63
2022/08/23 06:13:24;;;;;;;6.28;2.20;;;;;;;;;;5061287;28;19923;-63
2022/08/23 06:15:50;;;;;;;;;;;;;;;;;;5066269;28;20048;-64
2022/08/23 06:18:16;;;;;;;7.97;2.40;;;;;;;;;;5061741;28;19963;-63
2022/08/23 06:20:42;;;;;;;6.00;1.95;;;;;;;;;;5052621;28;20064;-64
2022/08/23 06:23:08;;;;;;;7.10;2.60;;;;;;;;;;5061135;28;20630;-62
2022/08/23 06:25:38;;;;;;;3.65;1.75;;;;;;;;;;5053380;28;20124;-61
2022/08/23 06:28:04;;;;;;;4.85;2.10;;;;;;;;;;5053186;28;20131;-60
2022/08/23 06:30:30;;;;;;;7.78;1.92;;;;;;;;;;5054168;28;20041;-59
2022/08/23 06:32:56;;;;;;;2.42;1.42;;;;;;;;;;5060888;28;20633;-65
2022/08/23 06:35:22;;;;;;;4.32;1.90;;;;;;;;;;5059184;28;20037;-61
2022/08/23 06:37:48;;;;;;;4.18;1.95;;;;;;;;;;5058809;28;20488;-63
2022/08/23 06:40:14;;;;;;;5.03;2.08;;;;;;;;;;5054365;28;20036;-64
2022/08/23 06:42:40;;;;;;;6.38;2.25;;;;;;;;;;5058531;28;20060;-63
2022/08/23 06:45:06;;;;;;;5.38;2.20;;;;;;;;;;5054281;28;20040;-63
2022/08/23 06:47:33;;;;;;;4.10;2.17;;;;;;;;;;5050709;28;20052;-62
2022/08/23 06:49:59;;;;;;;5.50;2.17;;;;;;;;;;5057660;28;20036;-61
2022/08/23 06:52:27;;;;;;;4.13;2.10;;;;;;;;;;5050197;28;20381;-63
2022/08/23 06:54:53;;;;;;;5.93;2.55;;;;;;;;;;5052197;28;20050;-65
2022/08/23 06:57:19;;;;;;;5.03;1.80;;;;;;;;;;5048160;28;20389;-63
2022/08/23 06:59:45;;;;;;;3.17;2.00;;;;;;;;;;5053978;28;20037;-62
2022/08/23 07:02:13;;;;;;;5.63;2.80;;;;;;;;;;5058937;28;20045;-63
2022/08/23 07:04:39;;;;;;;6.53;1.90;;;;;;;;;;5052326;28;20070;-62
2022/08/23 07:07:06;;;;;;;9.90;2.67;;;;;;;;;;5050583;28;20032;-63
2022/08/23 07:09:32;;;;;;;14.52;2.33;;;;;;;;;;5055115;28;20041;-63
2022/08/23 07:11:59;;;;;;;6.60;1.80;;;;;;;;;;5060106;28;20128;-63
2022/08/23 07:14:25;;;;;;;6.63;2.17;;;;;;;;;;5049840;28;20678;-63
2022/08/23 07:16:55;;;;;;;2.85;1.50;;;;;;;;;;5055148;28;20519;-64
2022/08/23 07:19:22;;;;;;;4.00;2.00;;;;;;;;;;5050702;28;20127;-64
2022/08/23 07:21:48;;;;;;;12.00;2.15;;;;;;;;;;5058490;28;20045;-64
2022/08/23 07:24:15;;;;;;;4.22;2.17;;;;;;;;;;5056272;28;20043;-63
2022/08/23 07:26:43;;;;;;;4.97;2.10;;;;;;;;;;5053758;28;20080;-63
2022/08/23 07:29:10;;;;;;;3.92;2.05;;;;;;;;;;5057090;28;20559;-63
2022/08/23 07:31:39;;;;;;;6.57;2.10;;;;;;;;;;5063174;28;20491;-63
2022/08/23 07:34:05;;;;;;;4.50;2.00;;;;;;;;;;5058229;28;20033;-63
2022/08/23 07:36:32;;;;;;;4.70;2.05;;;;;;;;;;5054769;28;20119;-63
2022/08/23 07:38:59;;;;;;;6.03;2.28;;;;;;;;;;5055603;28;20029;-63
2022/08/23 07:41:28;;;;;;;6.03;2.33;;;;;;;;;;5068513;28;20116;-63
2022/08/23 07:43:56;;;;;;;4.65;1.70;;;;;;;;;;5062421;28;20032;-63
2022/08/23 07:46:23;;;;;;;6.38;2.30;;;;;;;;;;5067822;28;20675;-64
2022/08/23 07:48:49;;;;;;;7.68;2.05;;;;;;;;;;5064717;28;20231;-63
2022/08/23 07:51:15;;;;;;;3.40;1.70;;;;;;;;;;5062319;28;20042;-64
2022/08/23 07:53:41;;;;;;;4.60;2.17;;;;;;;;;;5060349;28;20492;-64
2022/08/23 07:56:08;;;;;;;5.10;2.10;;;;;;;;;;5059286;28;20033;-64
2022/08/23 07:58:34;;;;;;;5.43;1.70;;;;;;;;;;5060350;28;20040;-64
2022/08/23 08:01:14;;;;;;;6.72;2.08;;;;;;;;;;5067613;28;20047;-64
2022/08/23 08:03:42;;;;;;;5.25;2.35;;;;;;;;;;5062450;28;20136;-63
2022/08/23 08:06:12;;;;;;;3.67;1.70;;;;;;;;;;5067842;28;20182;-63
2022/08/23 08:08:39;;;;;;;5.32;1.80;;;;;;;;;;5062195;28;20526;-63
2022/08/23 08:11:06;;;;;;;6.72;1.77;;;;;;;;;;5062346;28;20044;-63
2022/08/23 08:13:32;;;;;;;3.38;1.95;;;;;;;;;;5053613;28;20087;-63
2022/08/23 08:15:58;;;;;;;5.45;1.85;;;;;;;;;;5057046;28;20040;-65
2022/08/23 08:18:24;;;;;;;4.90;1.67;;;;;;;;;;5066962;28;20048;-64
2022/08/23 08:20:50;;;;;;;4.82;1.50;;;;;;;;;;5055429;28;20082;-65
2022/08/23 08:23:17;;;;;;;7.00;1.67;;;;;;;;;;5066116;28;20207;-63
2022/08/23 08:25:43;;;;;;;5.07;1.95;;;;;;;;;;5056400;28;20044;-64
2022/08/23 08:28:09;;;;;;;6.00;1.88;;;;;;;;;;5066153;28;20436;-64
2022/08/23 08:30:35;;;;;;;4.80;1.60;;;;;;;;;;5065458;28;20503;-64
2022/08/23 08:33:01;;;;;;;5.82;1.85;;;;;;;;;;5066519;28;20037;-63
2022/08/23 08:35:27;;;;;;;5.72;1.75;;;;;;;;;;5054009;28;20059;-64
2022/08/23 08:37:53;;;;;;;4.93;2.20;;;;;;;;;;5063901;28;20044;-64
2022/08/23 08:40:24;;;;;;;4.80;1.80;;;;;;;;;;5062446;28;20467;-63
2022/08/23 08:43:17;;;;;;;7.13;1.88;;;;;;;;;;5065787;28;20037;-64
2022/08/23 08:45:49;;;;;;;7.32;2.08;;;;;;;;;;5060038;28;20053;-64
2022/08/23 08:48:20;;;;;;;6.20;1.65;;;;;;;;;;5065032;28;20043;-64
2022/08/23 08:50:49;;;;;;;7.00;1.95;;;;;;;;;;5067523;28;20047;-64
2022/08/23 08:53:18;;;;;;;6.05;2.05;;;;;;;;;;5062889;28;20070;-64
2022/08/23 08:55:49;;;;;;;7.15;2.00;;;;;;;;;;5058187;28;20057;-63
2022/08/23 08:58:21;;;;;;;8.65;2.42;;;;;;;;;;5062478;28;20054;-63
2022/08/23 09:00:47;;;;;;;6.18;1.98;;;;;;;;;;5065702;28;20040;-64
2022/08/23 09:03:14;;;;;;;8.25;1.83;;;;;;;;;;5064113;28;20736;-63
2022/08/23 09:05:46;;;;;;;5.43;1.60;;;;;;;;;;5065228;28;20044;-62
2022/08/23 09:08:21;;;;;;;3.28;1.70;;;;;;;;;;5064040;28;20062;-63
2022/08/23 09:10:47;;;;;;;5.00;2.55;;;;;;;;;;5066367;28;20032;-63
2022/08/23 09:13:32;;;;;;;6.20;2.13;;;;;;;;;;5063705;28;20135;-62
2022/08/23 09:16:07;;;;;;;3.88;1.92;;;;;;;;;;5067604;28;20384;-63
2022/08/23 09:18:34;;;;;;;5.15;1.90;;;;;;;;;;5062668;28;20036;-63
2022/08/23 09:21:01;;;;;;;6.80;2.15;;;;;;;;;;5067046;28;20039;-63
2022/08/23 09:23:35;;;;;;;4.75;1.90;;;;;;;;;;5063056;28;20043;-63
2022/08/23 09:26:04;;;;;;;6.55;2.05;;;;;;;;;;5058666;28;20036;-63
2022/08/23 09:28:32;;;;;;;9.73;2.97;;;;;;;;;;5057752;28;20048;-64
2022/08/23 09:30:59;;;;;;;4.45;2.17;;;;;;;;;;5066348;28;20565;-63
2022/08/23 09:33:37;;;;;;;14.18;4.15;;;;;;;;;;5060858;28;20043;-65
2022/08/23 09:36:24;;;;;;;7.45;3.17;;;;;;;;;;5059682;28;20044;-63
2022/08/23 09:39:00;;;;;;;4.38;2.33;;;;;;;;;;5061401;28;20051;-64
2022/08/23 09:41:35;;;;;;;7.35;3.17;;;;;;;;;;5056393;28;20041;-63
2022/08/23 09:44:02;;;;;;;6.63;2.25;;;;;;;;;;5060683;28;20037;-63
2022/08/23 09:46:31;;;;;;;4.85;2.28;;;;;;;;;;5060021;28;20866;-63
2022/08/23 09:48:57;;;;;;;4.50;2.17;;;;;;;;;;5061788;28;20037;-63
2022/08/23 09:51:50;;;;;;;4.88;2.38;;;;;;;;;;5064964;28;20064;-62
2022/08/23 09:54:24;;;;;;;4.30;1.77;;;;;;;;;;5052659;28;20044;-63
2022/08/23 09:56:53;;;;;;;4.65;2.08;;;;;;;;;;5057977;28;20165;-65
2022/08/23 09:59:21;;;;;;;5.15;2.00;;;;;;;;;;5051020;28;20044;-63
2022/08/23 10:01:49;;;;;;;6.03;2.40;;;;;;;;;;5057634;28;20044;-64
2022/08/23 10:04:31;;;;;;;6.47;2.28;;;;;;;;;;5060658;28;20454;-64
2022/08/23 10:06:57;;;;;;;6.07;2.10;;;;;;;;;;5066186;28;20110;-63
2022/08/23 10:09:31;;;;;;;4.72;2.45;;;;;;;;;;5055441;28;20064;-63
2022/08/23 10:11:58;;;;;;;5.53;2.17;;;;;;;;;;5056229;28;20040;-64
2022/08/23 10:14:24;;;;;;;4.85;1.90;;;;;;;;;;5052871;28;20393;-66
2022/08/23 10:17:03;;;;;;;7.43;2.17;;;;;;;;;;5055938;28;20044;-64
2022/08/23 10:19:53;;;;;;;6.18;2.22;;;;;;;;;;5050786;28;20073;-62
2022/08/23 10:22:20;;;;;;;3.17;1.88;;;;;;;;;;5058332;28;20102;-64
2022/08/23 10:24:46;;;;;;;5.05;1.70;;;;;;;;;;5061935;28;20036;-64
2022/08/23 10:30:20;;;;;;;3.67;2.00;;;;;;;;;;5057844;28;20045;-64
2022/08/23 10:32:49;;;;;;;6.10;1.95;;;;;;;;;;5063502;28;20067;-64
2022/08/23 10:35:30;;;;;;;2.45;1.80;;;;;;;;;;5061249;28;20555;-65
2022/08/23 10:38:01;;;;;;;4.55;2.13;;;;;;;;;;5065835;28;20586;-65
2022/08/23 10:40:29;;;;;;;3.03;1.55;;;;;;;;;;5048937;28;20114;-65
2022/08/23 10:43:06;;;;;;;4.93;2.35;;;;;;;;;;5058256;28;20036;-66
2022/08/23 10:45:34;;;;;;;6.00;2.00;;;;;;;;;;5053202;28;20097;-63
2022/08/23 10:48:20;;;;;;;9.55;1.83;;;;;;;;;;5051908;28;20036;-63
2022/08/23 10:50:54;;;;;;;5.13;2.38;;;;;;;;;;5059487;28;20041;-63
2022/08/23 10:53:21;;;;;;;6.45;2.05;;;;;;;;;;5057996;28;20123;-65
2022/08/23 10:56:04;;;;;;;5.95;2.20;;;;;;;;;;5052598;28;20033;-63
2022/08/23 10:58:37;;;;;;;4.53;1.90;;;;;;;;;;5055422;28;20033;-62
2022/08/23 11:01:04;;;;;;;7.97;2.53;;;;;;;;;;5056559;28;20037;-63
2022/08/23 11:03:30;;;;;;;10.88;2.47;;;;;;;;;;5053406;28;20476;-64
2022/08/23 11:06:15;;;;;;;3.67;2.30;;;;;;;;;;5057328;28;20029;-62
2022/08/23 11:08:45;;;;;;;4.53;2.13;;;;;;;;;;5056935;28;20882;-62
2022/08/23 11:11:30;;;;;;;6.50;2.70;;;;;;;;;;5060775;28;20033;-62
2022/08/23 11:13:56;;;;;;;10.88;2.55;;;;;;;;;;5058323;28;20032;-64
2022/08/23 11:16:28;;;;;;;7.53;2.47;;;;;;;;;;5053311;28;20135;-62
2022/08/23 11:18:54;;;;;;;5.13;1.95;;;;;;;;;;5059147;28;20043;-63
2022/08/23 11:21:32;;;;;;;4.47;2.58;;;;;;;;;;5053954;28;20037;-62
2022/08/23 11:23:58;;;;;;;4.60;2.35;;;;;;;;;;5048102;28;20025;-62
2022/08/23 11:26:35;;;;;;;3.35;2.05;;;;;;;;;;5049467;28;20412;-63
2022/08/23 11:29:09;;;;;;;4.22;2.17;;;;;;;;;;5047795;28;20733;-63
2022/08/23 11:31:35;;;;;;;3.95;1.95;;;;;;;;;;5062502;28;20037;-62
2022/08/23 11:34:01;;;;;;;5.10;2.28;;;;;;;;;;5063853;28;20044;-63
2022/08/23 11:36:28;;;;;;;4.80;3.05;;;;;;;;;;5058814;28;20475;-63
2022/08/23 11:38:54;;;;;;;7.47;2.30;;;;;;;;;;5061457;28;20036;-62
2022/08/23 11:41:55;;;;;;;9.88;2.30;;;;;;;;;;5058920;28;20033;-63
2022/08/23 11:44:46;;;;;;;4.97;2.20;;;;;;;;;;5054285;28;20033;-62
2022/08/23 11:47:12;;;;;;;4.85;2.42;;;;;;;;;;5059452;28;20043;-63
2022/08/23 11:49:48;;;;;;;4.75;2.00;;;;;;;;;;5058370;28;20123;-62
2022/08/23 11:52:20;;;;;;;5.95;2.28;;;;;;;;;;5060302;28;20033;-61
2022/08/23 11:55:02;;;;;;;3.78;2.30;;;;;;;;;;5056463;28;20044;-62
2022/08/23 11:57:28;;;;;;;4.45;2.33;;;;;;;;;;5064392;28;20043;-66
2022/08/23 11:59:54;;;;;;;5.55;2.42;;;;;;;;;;5057800;28;20040;-65
2022/08/23 12:02:52;;;;;;;6.07;2.67;;;;;;;;;;5059460;28;20029;-65
2022/08/23 12:05:21;;;;;;;5.45;2.30;;;;;;;;;;5029651;28;20044;-65
2022/08/23 12:08:16;;;;;;;8.13;2.60;;;;;;;;;;5064521;28;20040;-65
2022/08/23 12:10:42;;;;;;;4.32;2.42;;;;;;;;;;5031333;28;20053;-65
2022/08/23 12:13:21;;;;;;;6.35;2.00;;;;;;;;;;5062884;28;20044;-65
2022/08/23 12:16:05;;;;;;;4.18;2.15;;;;;;;;;;5066698;28;20147;-65
2022/08/23 12:18:33;;;;;;;4.38;2.35;;;;;;;;;;5062954;28;20536;-65
2022/08/23 12:21:00;;;;;;;3.65;2.13;;;;;;;;;;5067772;28;20037;-65
2022/08/23 12:23:26;;;;;;;6.05;2.03;;;;;;;;;;5064395;28;20522;-65
2022/08/23 12:26:25;;;;;;;4.70;2.00;;;;;;;;;;5061734;28;20036;-66
2022/08/23 12:29:02;;;;;;;7.88;2.03;;;;;;;;;;5028950;28;20048;-65
2022/08/23 12:31:42;;;;;;;5.22;2.00;;;;;;;;;;5068124;28;20045;-65
2022/08/23 12:34:16;;;;;;;4.97;2.28;;;;;;;;;;5064479;28;20029;-64
2022/08/23 12:37:01;;;;;;;5.40;2.38;;;;;;;;;;5058881;28;20113;-65
2022/08/23 12:39:35;;;;;;;4.53;2.45;;;;;;;;;;5060857;28;20495;-62
2022/08/23 12:42:01;;;;;;;4.00;2.50;;;;;;;;;;5058381;28;20551;-65
2022/08/23 12:44:29;;;;;;;10.07;2.38;;;;;;;;;;5057462;28;20490;-64
2022/08/23 12:46:55;;;;;;;5.93;2.30;;;;;;;;;;5066619;28;20546;-63
2022/08/23 12:49:23;;;;;;;5.35;2.35;;;;;;;;;;5060937;28;20033;-65
2022/08/23 12:51:50;;;;;;;5.47;2.15;;;;;;;;;;5065231;28;20526;-63
2022/08/23 12:54:18;;;;;;;5.32;2.28;;;;;;;;;;5054084;28;20033;-64
2022/08/23 12:56:45;;;;;;;5.50;2.42;;;;;;;;;;5062778;28;20044;-63
2022/08/23 12:59:25;;;;;;;2.25;1.70;;;;;;;;;;5054518;28;20033;-65
2022/08/23 13:01:51;;;;;;;4.82;2.20;;;;;;;;;;5057185;28;20037;-65
2022/08/23 13:04:18;;;;;;;3.20;2.00;;;;;;;;;;5057453;28;20037;-64
2022/08/23 13:06:46;;;;;;;5.60;2.10;;;;;;;;;;5060629;28;20048;-64
2022/08/23 13:09:18;;;;;;;7.57;2.33;;;;;;;;;;5059405;28;20061;-62
2022/08/23 13:11:45;;;;;;;3.17;2.10;;;;;;;;;;5062238;28;20041;-64
2022/08/23 13:14:30;;;;;;;6.82;2.47;;;;;;;;;;5059704;28;20492;-64
2022/08/23 13:16:57;;;;;;;4.40;2.33;;;;;;;;;;5061796;28;20044;-63
2022/08/23 13:19:29;;;;;;;5.95;2.30;;;;;;;;;;5054193;28;20833;-64
2022/08/23 13:22:10;;;;;;;2.67;1.98;;;;;;;;;;5061953;28;20046;-64
2022/08/23 13:24:38;;;;;;;5.25;2.22;;;;;;;;;;5054625;28;20065;-64
2022/08/23 13:27:19;;;;;;;3.17;1.88;;;;;;;;;;5062247;28;20040;-64
2022/08/23 13:29:49;;;;;;;6.22;1.85;;;;;;;;;;5059397;28;20040;-64
2022/08/23 13:32:31;;;;;;;5.53;1.90;;;;;;;;;;5059028;28;20043;-64
2022/08/23 13:35:15;;;;;;;9.38;2.10;;;;;;;;;;5053053;28;20694;-63
2022/08/23 13:37:45;;;;;;;3.33;1.90;;;;;;;;;;5062138;28;20047;-64
2022/08/23 13:40:15;;;;;;;4.30;1.85;;;;;;;;;;5063002;28;20033;-64
2022/08/23 13:42:41;;;;;;;6.13;2.25;;;;;;;;;;5066752;28;20044;-64
2022/08/23 13:45:26;;;;;;;8.90;2.45;;;;;;;;;;5058723;28;20041;-63
2022/08/23 13:48:09;;;;;;;3.63;2.10;;;;;;;;;;5064649;28;20496;-64
2022/08/23 13:50:36;;;;;;;7.10;2.15;;;;;;;;;;5063100;28;20036;-64
2022/08/23 13:53:02;;;;;;;6.25;2.40;;;;;;;;;;5063016;28;20037;-63
2022/08/23 13:55:29;;;;;;;4.38;1.92;;;;;;;;;;5052118;28;20041;-63
2022/08/23 13:57:56;;;;;;;3.53;2.17;;;;;;;;;;5062537;28;20481;-64
2022/08/23 14:00:22;;;;;;;3.72;2.08;;;;;;;;;;5062677;28;20094;-63
2022/08/23 14:02:49;;;;;;;4.75;1.98;;;;;;;;;;5065184;28;20090;-64
2022/08/23 14:05:20;;;;;;;7.03;2.42;;;;;;;;;;5061785;28;20734;-64
2022/08/23 14:07:47;;;;;;;4.63;2.17;;;;;;;;;;5061514;28;20047;-65
2022/08/23 14:10:15;;;;;;;3.47;2.22;;;;;;;;;;5051048;28;20072;-64
2022/08/23 14:12:42;;;;;;;3.03;1.67;;;;;;;;;;5064144;28;20044;-64
2022/08/23 14:15:08;;;;;;;3.45;2.20;;;;;;;;;;5060366;28;20036;-64
2022/08/23 14:17:39;;;;;;;6.63;2.53;;;;;;;;;;5066741;28;20071;-63
2022/08/23 14:20:07;;;;;;;5.32;2.60;;;;;;;;;;5062306;28;20047;-64
2022/08/23 14:22:33;;;;;;;4.35;2.40;;;;;;;;;;5065983;28;20048;-63
2022/08/23 14:24:59;;;;;;;4.75;2.38;;;;;;;;;;5050431;28;20028;-63
2022/08/23 14:27:25;;;;;;;3.65;2.05;;;;;;;;;;5056148;28;20039;-64
2022/08/23 14:29:51;;;;;;;3.53;2.10;;;;;;;;;;5060694;28;20094;-64
2022/08/23 14:32:17;;;;;;;3.30;2.00;;;;;;;;;;5065487;28;20055;-64
2022/08/23 14:34:43;;;;;;;3.38;2.28;;;;;;;;;;5059031;28;20679;-63
2022/08/23 14:37:09;;;;;;;4.22;2.20;;;;;;;;;;5066354;28;20063;-64
2022/08/23 14:39:35;;;;;;;4.45;2.20;;;;;;;;;;5060544;28;20662;-64
2022/08/23 14:42:01;;;;;;;5.78;2.30;;;;;;;;;;5066263;28;20036;-63
2022/08/23 14:44:27;;;;;;;6.03;2.35;;;;;;;;;;5059501;28;20033;-64
2022/08/23 14:46:53;;;;;;;3.35;2.03;;;;;;;;;;5054144;28;20163;-63
2022/08/23 14:49:20;;;;;;;3.90;1.90;;;;;;;;;;5054080;28;20068;-63
2022/08/23 14:51:48;;;;;;;7.75;2.38;;;;;;;;;;5057958;28;20687;-64
2022/08/23 14:54:16;;;;;;;3.38;2.30;;;;;;;;;;5055200;28;20044;-64
2022/08/23 14:56:42;;;;;;;5.05;3.30;;;;;;;;;;5057289;28;20070;-64
2022/08/23 14:59:08;;;;;;;4.32;2.10;;;;;;;;;;5059118;28;20134;-63
2022/08/23 15:01:34;;;;;;;9.25;2.50;;;;;;;;;;5065161;28;20502;-64
2022/08/23 15:04:02;;;;;;;2.78;1.95;;;;;;;;;;5056846;28;20970;-64